Time;durP1;ratioP1;P1;durP2;ratioP2;P2;SDS_P1;SDS_P2;PMS_P1;PMS_P2;Temp;Humidity;BMP_temperature;BMP_pressure;BME280_temperature;BME280_humidity;BME280_pressure;Samples;Min_cycle;Max_cycle;Signal;HPM_P1;HPM_P2
2023/07/15 00:00:14;;;;;;;8.32;2.72;;;22.90;88.60;;;;;;5033767;28;20026;-51
2023/07/15 00:02:42;;;;;;;10.38;2.65;;;22.90;88.70;;;;;;5032557;28;20031;-46
2023/07/15 00:05:15;;;;;;;12.55;2.95;;;22.90;88.80;;;;;;5033665;28;20515;-47
2023/07/15 00:07:41;;;;;;;7.28;3.45;;;22.90;89.10;;;;;;5031634;28;20044;-47
2023/07/15 00:10:07;;;;;;;7.35;2.10;;;22.80;89.30;;;;;;5032106;28;20022;-52
2023/07/15 00:12:33;;;;;;;3.53;2.60;;;22.80;89.50;;;;;;5033003;28;20378;-53
2023/07/15 00:14:59;;;;;;;6.68;2.58;;;22.80;90.00;;;;;;5033092;28;20028;-53
2023/07/15 00:17:25;;;;;;;6.63;2.50;;;22.80;90.00;;;;;;5032710;28;20021;-51
2023/07/15 00:19:50;;;;;;;7.20;2.38;;;22.80;90.00;;;;;;5031692;28;20018;-52
2023/07/15 00:22:16;;;;;;;8.52;2.58;;;22.70;90.90;;;;;;5046495;22;20053;-53
2023/07/15 00:24:41;;;;;;;6.90;2.67;;;22.60;90.50;;;;;;5031609;28;20465;-53
2023/07/15 00:27:08;;;;;;;3.65;2.35;;;22.60;90.30;;;;;;5032267;28;20036;-52
2023/07/15 00:29:34;;;;;;;9.35;2.67;;;22.60;91.00;;;;;;5033171;28;20096;-55
2023/07/15 00:32:04;;;;;;;3.83;2.25;;;22.50;91.50;;;;;;5032683;28;20064;-53
2023/07/15 00:34:29;;;;;;;4.22;2.35;;;22.40;91.90;;;;;;5032644;28;20462;-53
2023/07/15 00:36:56;;;;;;;7.45;2.30;;;22.40;91.80;;;;;;5032066;28;20521;-52
2023/07/15 00:39:21;;;;;;;2.55;2.25;;;22.30;92.40;;;;;;5030447;28;20036;-56
2023/07/15 00:41:47;;;;;;;4.60;2.70;;;22.20;93.00;;;;;;5032582;28;20021;-51
2023/07/15 00:44:15;;;;;;;3.47;2.55;;;22.20;93.20;;;;;;5032357;28;20053;-53
2023/07/15 00:47:14;;;;;;;4.20;2.63;;;22.10;93.60;;;;;;5031863;28;20504;-54
2023/07/15 00:49:41;;;;;;;4.50;2.58;;;22.10;93.80;;;;;;5032402;28;20025;-56
2023/07/15 00:52:10;;;;;;;6.57;2.55;;;22.00;93.50;;;;;;5032287;28;20485;-54
2023/07/15 00:54:39;;;;;;;4.38;2.75;;;21.90;93.90;;;;;;5032212;28;20104;-56
2023/07/15 00:57:07;;;;;;;11.43;2.88;;;21.80;94.40;;;;;;5031648;28;20096;-51
2023/07/15 00:59:34;;;;;;;4.57;2.20;;;21.90;94.50;;;;;;5032296;28;20021;-55
2023/07/15 01:02:00;;;;;;;6.32;2.40;;;21.80;94.60;;;;;;5032232;28;20087;-54
2023/07/15 01:04:26;;;;;;;3.55;2.17;;;21.70;94.70;;;;;;5032108;28;20034;-52
2023/07/15 01:06:53;;;;;;;6.07;2.75;;;21.70;95.10;;;;;;5031558;28;20104;-50
2023/07/15 01:09:19;;;;;;;3.38;2.40;;;21.70;95.40;;;;;;5030942;28;20040;-54
2023/07/15 01:11:45;;;;;;;5.05;2.40;;;21.60;95.80;;;;;;5031932;28;20057;-52
2023/07/15 01:14:12;;;;;;;6.70;2.53;;;21.60;96.20;;;;;;5030779;28;20059;-52
2023/07/15 01:16:38;;;;;;;7.10;2.80;;;21.50;96.20;;;;;;5031483;28;20397;-50
2023/07/15 01:19:04;;;;;;;5.95;2.47;;;21.50;96.00;;;;;;5032032;28;20092;-51
2023/07/15 01:21:35;;;;;;;5.43;2.50;;;21.50;96.70;;;;;;5031782;28;20109;-49
2023/07/15 01:24:02;;;;;;;5.28;2.67;;;21.40;96.80;;;;;;5032060;28;20500;-52
2023/07/15 01:26:27;;;;;;;5.05;2.17;;;21.30;97.00;;;;;;5031202;28;20428;-52
2023/07/15 01:28:53;;;;;;;11.50;2.85;;;21.30;97.40;;;;;;5031762;28;20021;-52
2023/07/15 01:31:19;;;;;;;6.15;3.20;;;21.20;97.40;;;;;;5031583;28;20025;-56
2023/07/15 01:33:45;;;;;;;7.45;2.83;;;21.20;98.10;;;;;;5030941;28;20025;-55
2023/07/15 01:36:11;;;;;;;3.00;2.60;;;21.10;98.20;;;;;;5031757;28;20075;-52
2023/07/15 01:38:37;;;;;;;4.15;2.60;;;21.10;98.40;;;;;;5029797;28;20037;-55
2023/07/15 01:41:03;;;;;;;6.32;3.65;;;21.10;98.60;;;;;;5031587;28;20022;-54
2023/07/15 01:43:29;;;;;;;9.43;2.95;;;21.10;98.80;;;;;;5031521;28;20457;-51
2023/07/15 01:45:54;;;;;;;9.07;2.88;;;21.10;98.90;;;;;;5031257;28;20100;-52
2023/07/15 01:48:20;;;;;;;10.55;3.80;;;21.10;98.70;;;;;;5030662;28;20029;-55
2023/07/15 01:50:46;;;;;;;10.48;3.75;;;21.20;98.60;;;;;;5031508;28;20406;-51
2023/07/15 01:53:12;;;;;;;4.68;2.78;;;21.30;98.60;;;;;;5031198;28;20025;-54
2023/07/15 01:55:37;;;;;;;4.70;2.90;;;21.30;98.50;;;;;;5031649;28;20098;-52
2023/07/15 01:58:03;;;;;;;9.10;3.10;;;21.30;98.50;;;;;;5030892;28;20050;-52
2023/07/15 02:00:29;;;;;;;9.13;2.97;;;21.30;98.50;;;;;;5031395;28;20044;-51
2023/07/15 02:02:55;;;;;;;10.23;3.15;;;21.30;98.60;;;;;;5031206;28;20067;-54
2023/07/15 02:05:20;;;;;;;5.15;3.20;;;21.30;98.50;;;;;;5031431;28;20033;-50
2023/07/15 02:07:46;;;;;;;10.82;2.83;;;21.30;98.30;;;;;;5030669;28;20028;-50
2023/07/15 02:10:11;;;;;;;5.20;2.80;;;21.30;98.30;;;;;;5031363;28;20030;-53
2023/07/15 02:12:37;;;;;;;6.20;2.88;;;21.40;98.30;;;;;;5031167;28;20033;-54
2023/07/15 02:15:04;;;;;;;5.50;2.88;;;21.40;98.50;;;;;;5031377;28;20022;-54
2023/07/15 02:17:29;;;;;;;6.07;3.08;;;21.40;98.30;;;;;;5030566;28;20022;-54
2023/07/15 02:19:57;;;;;;;11.77;3.38;;;21.30;98.40;;;;;;5031219;28;20029;-55
2023/07/15 02:22:23;;;;;;;6.18;3.03;;;21.30;98.30;;;;;;5030988;28;20512;-53
2023/07/15 02:24:48;;;;;;;4.55;2.78;;;21.30;98.20;;;;;;5031162;28;20033;-52
2023/07/15 02:27:16;;;;;;;7.50;2.72;;;21.30;98.40;;;;;;5030511;28;20025;-50
2023/07/15 02:29:42;;;;;;;6.55;2.90;;;21.30;98.40;;;;;;5029795;28;20374;-50
2023/07/15 02:32:08;;;;;;;8.02;3.10;;;21.30;98.40;;;;;;5030935;28;20025;-52
2023/07/15 02:34:33;;;;;;;6.97;2.60;;;21.30;98.30;;;;;;5030925;28;20501;-53
2023/07/15 02:36:59;;;;;;;10.43;3.17;;;21.30;98.30;;;;;;5030423;28;20079;-52
2023/07/15 02:39:26;;;;;;;9.80;2.90;;;21.30;98.50;;;;;;5030006;28;20021;-52
2023/07/15 02:41:52;;;;;;;5.20;2.45;;;21.30;98.60;;;;;;5030932;28;20029;-52
2023/07/15 02:44:17;;;;;;;10.07;2.92;;;21.20;98.80;;;;;;5032767;28;20028;-50
2023/07/15 02:46:43;;;;;;;3.17;2.38;;;21.20;99.20;;;;;;5034613;28;20116;-51
2023/07/15 02:49:08;;;;;;;3.92;2.35;;;21.20;99.90;;;;;;5034672;28;20042;-55
2023/07/15 02:51:34;;;;;;;8.88;2.97;;;21.20;99.40;;;;;;5034640;28;20017;-54
2023/07/15 02:54:01;;;;;;;7.78;3.30;;;21.20;99.50;;;;;;5034455;28;20417;-55
2023/07/15 02:56:27;;;;;;;4.65;2.88;;;21.20;99.60;;;;;;5033984;28;20099;-57
2023/07/15 02:58:53;;;;;;;3.75;2.83;;;21.10;99.60;;;;;;5035170;28;20021;-52
2023/07/15 03:01:19;;;;;;;6.07;2.95;;;21.10;99.90;;;;;;5034921;28;20489;-52
2023/07/15 03:03:45;;;;;;;6.68;2.97;;;21.10;99.90;;;;;;5034463;28;20029;-53
2023/07/15 03:06:12;;;;;;;9.43;2.67;;;21.10;99.90;;;;;;5034747;28;20079;-51
2023/07/15 03:08:38;;;;;;;3.97;2.60;;;21.10;99.90;;;;;;5033946;28;20439;-52
2023/07/15 03:11:07;;;;;;;4.32;2.55;;;21.10;99.90;;;;;;5034550;28;20026;-55
2023/07/15 03:13:33;;;;;;;12.20;2.70;;;21.00;99.90;;;;;;5034435;28;20507;-55
2023/07/15 03:15:58;;;;;;;8.82;2.90;;;21.00;99.90;;;;;;5034616;28;20124;-55
2023/07/15 03:18:25;;;;;;;6.72;2.92;;;20.90;99.90;;;;;;5032522;28;20105;-51
2023/07/15 03:20:52;;;;;;;4.72;3.42;;;21.00;99.90;;;;;;5034507;28;20399;-54
2023/07/15 03:23:18;;;;;;;6.13;2.88;;;20.90;99.90;;;;;;5034392;28;20033;-53
2023/07/15 03:25:44;;;;;;;8.27;3.10;;;20.90;99.90;;;;;;5033934;28;20616;-54
2023/07/15 03:28:11;;;;;;;4.10;2.45;;;20.90;99.90;;;;;;5033552;28;20029;-52
2023/07/15 03:30:36;;;;;;;7.05;3.13;;;20.80;99.90;;;;;;5034711;28;20045;-53
2023/07/15 03:33:02;;;;;;;4.30;2.67;;;20.70;99.90;;;;;;5033917;28;20025;-55
2023/07/15 03:35:27;;;;;;;6.75;2.75;;;20.70;99.90;;;;;;5034215;28;20025;-54
2023/07/15 03:37:53;;;;;;;4.88;2.92;;;20.60;99.90;;;;;;5033078;28;20481;-53
2023/07/15 03:40:19;;;;;;;10.90;3.17;;;20.50;99.90;;;;;;5033786;28;20363;-53
2023/07/15 03:42:44;;;;;;;19.38;3.58;;;20.50;99.90;;;;;;5034074;28;20025;-54
2023/07/15 03:45:10;;;;;;;4.65;2.65;;;20.50;99.90;;;;;;5034232;28;20030;-51
2023/07/15 03:47:36;;;;;;;7.13;3.13;;;20.40;99.90;;;;;;5031886;28;20068;-53
2023/07/15 03:50:04;;;;;;;8.85;3.22;;;20.40;99.90;;;;;;5033895;28;20032;-53
2023/07/15 03:52:29;;;;;;;12.32;4.07;;;20.40;99.90;;;;;;5033508;28;20030;-53
2023/07/15 03:54:56;;;;;;;11.95;3.58;;;20.40;99.90;;;;;;5032937;28;20044;-50
2023/07/15 03:57:22;;;;;;;5.28;3.63;;;20.50;99.90;;;;;;5033211;28;20096;-53
2023/07/15 03:59:48;;;;;;;6.10;3.45;;;20.40;99.90;;;;;;5034250;28;20060;-53
2023/07/15 04:02:13;;;;;;;8.43;2.92;;;20.50;99.90;;;;;;5033883;28;20443;-52
2023/07/15 04:04:39;;;;;;;5.97;3.25;;;20.50;99.90;;;;;;5033522;28;20013;-52
2023/07/15 04:07:04;;;;;;;3.95;2.90;;;20.50;99.90;;;;;;5032799;28;20030;-51
2023/07/15 04:09:30;;;;;;;7.88;2.90;;;20.50;99.90;;;;;;5033545;28;20116;-51
2023/07/15 04:11:56;;;;;;;5.63;3.10;;;20.50;99.90;;;;;;5033563;28;20020;-50
2023/07/15 04:14:21;;;;;;;4.45;3.10;;;20.40;99.90;;;;;;5033208;28;20032;-52
2023/07/15 04:16:47;;;;;;;4.05;2.67;;;20.40;99.90;;;;;;5032528;28;20040;-52
2023/07/15 04:19:13;;;;;;;8.00;3.67;;;20.50;99.90;;;;;;5033580;28;20100;-54
2023/07/15 04:21:39;;;;;;;6.60;3.03;;;20.50;99.90;;;;;;5033047;28;20037;-52
2023/07/15 04:24:05;;;;;;;7.45;3.45;;;20.50;99.90;;;;;;5033315;28;20444;-55
2023/07/15 04:26:30;;;;;;;11.73;3.58;;;20.50;99.90;;;;;;5032938;28;20022;-52
2023/07/15 04:28:56;;;;;;;9.15;3.38;;;20.60;99.90;;;;;;5033229;28;20092;-55
2023/07/15 04:31:22;;;;;;;6.95;3.30;;;20.60;99.90;;;;;;5031678;28;20026;-51
2023/07/15 04:33:49;;;;;;;7.72;3.40;;;20.60;99.90;;;;;;5032902;28;20112;-52
2023/07/15 04:36:17;;;;;;;5.65;3.72;;;20.60;99.90;;;;;;5033323;28;20516;-54
2023/07/15 04:38:43;;;;;;;6.75;3.42;;;20.60;99.90;;;;;;5030816;28;20501;-52
2023/07/15 04:41:08;;;;;;;12.13;3.88;;;20.60;99.90;;;;;;5032990;28;20083;-52
2023/07/15 04:43:34;;;;;;;11.43;3.88;;;20.60;99.90;;;;;;5032914;28;20056;-49
2023/07/15 04:46:00;;;;;;;15.90;4.05;;;20.60;99.90;;;;;;5033086;28;20091;-49
2023/07/15 04:48:26;;;;;;;6.28;4.35;;;20.60;99.90;;;;;;5032031;28;20032;-52
2023/07/15 04:50:52;;;;;;;6.63;3.80;;;20.70;99.90;;;;;;5032689;28;20030;-54
2023/07/15 04:53:17;;;;;;;9.32;3.47;;;20.90;99.90;;;;;;5032871;28;20095;-49
2023/07/15 04:55:45;;;;;;;9.27;4.45;;;21.00;99.90;;;;;;5032648;28;20022;-52
2023/07/15 04:58:12;;;;;;;6.90;3.90;;;21.20;99.90;;;;;;5031694;28;20017;-53
2023/07/15 05:00:37;;;;;;;9.32;4.05;;;21.60;99.90;;;;;;5032318;28;20028;-54
2023/07/15 05:03:06;;;;;;;6.80;3.40;;;22.00;99.90;;;;;;5032122;28;20037;-51
2023/07/15 05:05:32;;;;;;;6.35;3.83;;;22.70;99.90;;;;;;5032243;28;20022;-51
2023/07/15 05:08:12;;;;;;;12.50;4.53;;;23.40;99.90;;;;;;5031466;28;20021;-55
2023/07/15 05:10:38;;;;;;;7.18;3.55;;;24.60;99.20;;;;;;5032351;28;20025;-51
2023/07/15 05:13:03;;;;;;;9.07;2.90;;;25.60;97.40;;;;;;5032068;28;20021;-54
2023/07/15 05:15:29;;;;;;;4.95;3.00;;;26.50;95.40;;;;;;5031889;28;20115;-51
2023/07/15 05:17:55;;;;;;;10.38;3.08;;;27.60;93.20;;;;;;5031553;28;20396;-52
2023/07/15 05:20:20;;;;;;;6.95;2.80;;;28.30;92.30;;;;;;5031968;28;20100;-54
2023/07/15 05:22:46;;;;;;;7.22;2.90;;;28.60;91.30;;;;;;5031649;28;20040;-54
2023/07/15 05:25:12;;;;;;;7.07;3.03;;;29.20;90.20;;;;;;5031879;28;20029;-51
2023/07/15 05:27:38;;;;;;;6.85;2.97;;;29.60;88.60;;;;;;5031571;28;20021;-53
2023/07/15 05:30:04;;;;;;;7.43;2.80;;;30.00;87.40;;;;;;5031673;28;20117;-52
2023/07/15 05:32:30;;;;;;;3.13;2.58;;;30.30;85.30;;;;;;5031735;28;20112;-52
2023/07/15 05:34:56;;;;;;;6.80;3.42;;;30.50;85.10;;;;;;5031676;28;20060;-51
2023/07/15 05:37:21;;;;;;;5.00;2.92;;;30.60;83.70;;;;;;5031016;28;20112;-53
2023/07/15 05:39:47;;;;;;;7.88;2.70;;;30.20;83.80;;;;;;5030665;28;20493;-52
2023/07/15 05:42:12;;;;;;;7.00;3.13;;;29.80;84.80;;;;;;5031496;28;20505;-52
2023/07/15 05:44:38;;;;;;;9.65;3.20;;;29.10;86.30;;;;;;5031395;28;20489;-49
2023/07/15 05:47:03;;;;;;;5.68;3.63;;;28.30;89.10;;;;;;5030945;28;20112;-53
2023/07/15 05:49:29;;;;;;;7.75;2.78;;;27.50;90.20;;;;;;5031775;28;20076;-54
2023/07/15 05:51:54;;;;;;;4.75;3.13;;;27.00;90.90;;;;;;5031468;28;20489;-51
2023/07/15 05:54:20;;;;;;;3.38;2.92;;;26.60;92.20;;;;;;5031348;28;20029;-54
2023/07/15 05:56:45;;;;;;;5.10;2.90;;;26.50;92.40;;;;;;5030684;28;20027;-53
2023/07/15 05:59:11;;;;;;;3.78;2.92;;;26.40;92.50;;;;;;5031219;28;20026;-51
2023/07/15 06:01:36;;;;;;;6.03;3.08;;;26.20;92.90;;;;;;5031314;28;20573;-49
2023/07/15 06:04:05;;;;;;;3.92;3.28;;;25.90;93.50;;;;;;5031236;28;20464;-55
2023/07/15 06:06:31;;;;;;;6.63;3.13;;;25.60;94.10;;;;;;5030715;28;20038;-56
2023/07/15 06:08:56;;;;;;;16.45;3.53;;;25.50;94.50;;;;;;5031279;28;20033;-54
2023/07/15 06:11:22;;;;;;;5.72;2.90;;;25.40;95.10;;;;;;5031112;28;20026;-53
2023/07/15 06:13:47;;;;;;;7.97;2.90;;;25.40;95.80;;;;;;5031111;28;20117;-55
2023/07/15 06:16:13;;;;;;;7.65;2.88;;;25.60;95.50;;;;;;5031165;28;20489;-56
2023/07/15 06:18:38;;;;;;;11.60;3.60;;;26.50;94.90;;;;;;5031529;28;20033;-55
2023/07/15 06:21:06;;;;;;;6.40;3.13;;;27.70;92.60;;;;;;5035217;28;20068;-52
2023/07/15 06:23:31;;;;;;;7.35;3.00;;;28.60;91.90;;;;;;5035660;28;20131;-54
2023/07/15 06:25:57;;;;;;;7.82;2.67;;;29.10;91.00;;;;;;5035256;28;20562;-52
2023/07/15 06:28:22;;;;;;;7.50;2.80;;;29.10;90.30;;;;;;5034416;28;20030;-56
2023/07/15 06:30:50;;;;;;;4.03;2.50;;;28.70;90.50;;;;;;5035231;28;20408;-54
2023/07/15 06:33:15;;;;;;;6.75;2.83;;;28.60;90.60;;;;;;5034908;28;20026;-51
2023/07/15 06:35:41;;;;;;;8.95;2.80;;;28.60;90.40;;;;;;5035039;28;20028;-55
2023/07/15 06:38:07;;;;;;;4.38;2.25;;;28.30;90.40;;;;;;5033354;28;20030;-55
2023/07/15 06:40:33;;;;;;;5.43;3.42;;;28.20;90.80;;;;;;5034796;28;20037;-56
2023/07/15 06:42:59;;;;;;;7.60;2.50;;;28.10;91.20;;;;;;5033762;28;20401;-56
2023/07/15 06:45:33;;;;;;;4.85;3.03;;;28.00;91.60;;;;;;5034436;28;20033;-55
2023/07/15 06:47:58;;;;;;;4.60;2.75;;;27.90;91.40;;;;;;5034275;28;20052;-50
2023/07/15 06:50:24;;;;;;;5.90;2.78;;;28.40;91.50;;;;;;5034706;28;20029;-52
2023/07/15 06:52:49;;;;;;;5.65;2.42;;;29.30;90.30;;;;;;5034615;28;20068;-55
2023/07/15 06:55:15;;;;;;;4.63;2.50;;;29.60;88.90;;;;;;5034710;28;20093;-52
2023/07/15 06:57:40;;;;;;;4.60;2.58;;;29.20;88.40;;;;;;5034069;28;20075;-54
2023/07/15 07:00:07;;;;;;;4.10;2.10;;;28.70;89.90;;;;;;5034672;28;20028;-56
2023/07/15 07:02:32;;;;;;;9.23;2.40;;;27.90;90.60;;;;;;5033375;28;20496;-51
2023/07/15 07:04:57;;;;;;;5.03;2.47;;;27.30;91.40;;;;;;5034423;28;20084;-53
2023/07/15 07:07:23;;;;;;;7.57;2.78;;;26.70;92.00;;;;;;5033719;28;20025;-52
2023/07/15 07:09:49;;;;;;;8.75;3.05;;;26.50;92.50;;;;;;5034668;28;20029;-54
2023/07/15 07:12:14;;;;;;;3.58;2.70;;;26.20;93.20;;;;;;5034265;28;20452;-55
2023/07/15 07:14:40;;;;;;;2.70;2.35;;;26.00;94.00;;;;;;5034209;28;20018;-56
2023/07/15 07:17:06;;;;;;;4.63;2.60;;;25.80;94.20;;;;;;5033578;28;20022;-56
2023/07/15 07:19:31;;;;;;;6.15;2.72;;;25.80;94.60;;;;;;5034382;28;20032;-53
2023/07/15 07:21:57;;;;;;;13.00;2.38;;;26.00;94.70;;;;;;5034014;28;20041;-50
2023/07/15 07:24:22;;;;;;;9.05;2.45;;;26.80;94.30;;;;;;5034351;28;20017;-56
2023/07/15 07:26:49;;;;;;;5.68;2.83;;;27.40;93.20;;;;;;5033726;28;20207;-56
2023/07/15 07:29:14;;;;;;;3.05;2.50;;;27.90;92.50;;;;;;5034255;28;20389;-54
2023/07/15 07:31:40;;;;;;;4.82;2.40;;;28.10;92.10;;;;;;5034312;28;20021;-56
2023/07/15 07:34:05;;;;;;;4.10;2.47;;;28.00;92.20;;;;;;5033896;28;20030;-53
2023/07/15 07:36:32;;;;;;;4.75;2.38;;;27.80;92.70;;;;;;5033655;28;20030;-53
2023/07/15 07:38:57;;;;;;;12.50;4.68;;;27.70;92.80;;;;;;5033243;28;20108;-54
2023/07/15 07:41:23;;;;;;;7.95;2.97;;;27.50;92.90;;;;;;5034059;28;20490;-57
2023/07/15 07:43:48;;;;;;;3.65;1.98;;;27.20;93.20;;;;;;5034161;28;20033;-53
2023/07/15 07:46:14;;;;;;;3.35;2.50;;;26.90;93.50;;;;;;5034149;28;20548;-52
2023/07/15 07:48:40;;;;;;;7.88;2.65;;;26.80;93.90;;;;;;5031908;28;20044;-51
2023/07/15 07:51:06;;;;;;;7.60;2.38;;;26.60;94.40;;;;;;5033802;28;20462;-55
2023/07/15 07:53:31;;;;;;;3.10;2.70;;;26.40;94.50;;;;;;5033597;28;20408;-55
2023/07/15 07:55:57;;;;;;;6.45;3.22;;;26.30;94.60;;;;;;5033773;28;20100;-55
2023/07/15 07:58:23;;;;;;;3.20;2.55;;;26.20;95.00;;;;;;5032951;28;20543;-54
2023/07/15 08:00:48;;;;;;;3.08;2.20;;;26.20;95.40;;;;;;5033585;28;20030;-54
2023/07/15 08:03:14;;;;;;;5.05;2.75;;;26.20;95.50;;;;;;5033986;28;20033;-53
2023/07/15 08:05:45;;;;;;;4.25;2.55;;;26.20;95.60;;;;;;5033799;28;20021;-56
2023/07/15 08:08:11;;;;;;;5.13;2.50;;;26.20;95.60;;;;;;5032795;28;20036;-56
2023/07/15 08:10:38;;;;;;;3.60;2.70;;;26.50;95.50;;;;;;5033642;28;20112;-55
2023/07/15 08:13:05;;;;;;;6.75;2.28;;;27.00;94.90;;;;;;5033887;28;20033;-56
2023/07/15 08:15:32;;;;;;;6.15;2.35;;;27.30;94.80;;;;;;5033746;28;20029;-54
2023/07/15 08:17:57;;;;;;;6.53;3.05;;;27.60;94.60;;;;;;5033241;28;20032;-51
2023/07/15 08:20:23;;;;;;;4.28;2.92;;;27.70;94.20;;;;;;5033532;28;20021;-55
2023/07/15 08:22:48;;;;;;;4.53;2.90;;;27.80;93.50;;;;;;5033395;28;20073;-57
2023/07/15 08:25:14;;;;;;;5.05;2.85;;;28.10;93.50;;;;;;5033223;28;20429;-52
2023/07/15 08:27:39;;;;;;;7.68;2.92;;;28.90;92.70;;;;;;5032383;28;20029;-53
2023/07/15 08:30:05;;;;;;;4.95;2.33;;;30.20;91.30;;;;;;5033197;28;20028;-54
2023/07/15 08:32:31;;;;;;;5.07;2.53;;;31.30;89.00;;;;;;5032954;28;20033;-55
2023/07/15 08:35:01;;;;;;;5.00;2.40;;;32.10;85.40;;;;;;5033135;28;20113;-55
2023/07/15 08:37:27;;;;;;;3.38;1.98;;;32.20;84.20;;;;;;5032668;28;20018;-54
2023/07/15 08:39:52;;;;;;;4.63;2.30;;;32.20;82.90;;;;;;5030937;28;20072;-52
2023/07/15 08:42:19;;;;;;;5.32;2.72;;;32.10;82.30;;;;;;5032573;28;20029;-55
2023/07/15 08:44:49;;;;;;;4.47;2.10;;;32.00;82.10;;;;;;5033070;28;20495;-53
2023/07/15 08:47:24;;;;;;;2.75;1.80;;;31.80;81.60;;;;;;5032269;28;20523;-54
2023/07/15 08:49:51;;;;;;;5.32;2.28;;;31.80;82.00;;;;;;5033100;28;20366;-54
2023/07/15 08:52:19;;;;;;;6.72;2.72;;;31.50;83.00;;;;;;5032638;28;20116;-57
2023/07/15 08:54:48;;;;;;;5.45;2.00;;;31.10;82.80;;;;;;5031375;28;20029;-53
2023/07/15 08:57:17;;;;;;;3.90;2.33;;;30.80;84.00;;;;;;5032145;28;20621;-54
2023/07/15 08:59:45;;;;;;;4.93;2.53;;;30.60;84.30;;;;;;5033222;28;20372;-57
2023/07/15 09:02:10;;;;;;;5.90;2.10;;;30.70;83.70;;;;;;5032762;28;20100;-55
2023/07/15 09:04:36;;;;;;;5.75;3.15;;;30.80;83.60;;;;;;5032517;28;20046;-56
2023/07/15 09:07:01;;;;;;;3.42;2.50;;;30.80;83.60;;;;;;5030541;28;20536;-57
2023/07/15 09:09:35;;;;;;;5.50;2.35;;;30.60;82.90;;;;;;5032493;28;20018;-53
2023/07/15 09:12:06;;;;;;;4.82;3.00;;;30.40;83.10;;;;;;5032199;28;20025;-57
2023/07/15 09:14:37;;;;;;;2.95;2.08;;;30.20;84.00;;;;;;5032133;28;20032;-51
2023/07/15 09:17:02;;;;;;;7.57;2.83;;;29.90;84.20;;;;;;5031565;28;20454;-56
2023/07/15 09:19:32;;;;;;;6.35;2.70;;;29.80;85.40;;;;;;5032060;28;20080;-51
2023/07/15 09:22:06;;;;;;;9.63;2.42;;;29.40;86.40;;;;;;5031965;28;20068;-53
2023/07/15 09:24:33;;;;;;;2.97;2.13;;;29.20;87.40;;;;;;5032169;28;20049;-53
2023/07/15 09:27:02;;;;;;;7.82;2.70;;;29.00;88.20;;;;;;5031451;28;20397;-53
2023/07/15 09:29:27;;;;;;;3.58;2.38;;;28.80;88.30;;;;;;5031884;28;20396;-55
2023/07/15 09:31:53;;;;;;;6.88;2.65;;;28.70;89.20;;;;;;5031952;28;20032;-54
2023/07/15 09:34:19;;;;;;;3.88;1.83;;;28.60;89.60;;;;;;5030721;28;20116;-55
2023/07/15 09:36:45;;;;;;;4.97;3.13;;;28.60;90.00;;;;;;5031408;28;20017;-53
2023/07/15 09:39:17;;;;;;;3.22;2.60;;;28.70;90.10;;;;;;5031008;28;20033;-55
2023/07/15 09:41:42;;;;;;;6.47;2.40;;;28.80;90.20;;;;;;5031909;28;20485;-52
2023/07/15 09:44:09;;;;;;;3.78;2.50;;;28.90;89.90;;;;;;5030443;28;20037;-56
2023/07/15 09:46:34;;;;;;;6.60;2.50;;;28.90;89.90;;;;;;5031027;28;20039;-53
2023/07/15 09:49:00;;;;;;;7.70;2.45;;;28.80;89.30;;;;;;5031781;28;20108;-53
2023/07/15 09:51:26;;;;;;;4.25;2.80;;;28.70;90.00;;;;;;5030363;28;20493;-53
2023/07/15 09:53:54;;;;;;;9.18;2.45;;;28.60;89.70;;;;;;5030913;28;20452;-54
2023/07/15 09:56:34;;;;;;;6.18;2.22;;;28.60;90.20;;;;;;5030957;28;20056;-52
2023/07/15 09:59:12;;;;;;;4.90;2.00;;;28.50;90.30;;;;;;5031672;28;20021;-51
2023/07/15 10:01:44;;;;;;;2.65;2.20;;;28.30;89.00;;;;;;5030353;28;20033;-55
2023/07/15 10:04:14;;;;;;;8.05;2.05;;;28.30;89.80;;;;;;5031458;28;20542;-51
2023/07/15 10:06:40;;;;;;;5.10;2.28;;;28.20;89.80;;;;;;5031030;28;20018;-55
2023/07/15 10:09:07;;;;;;;6.25;2.83;;;28.10;90.10;;;;;;5031445;28;20370;-52
2023/07/15 10:11:35;;;;;;;4.28;2.03;;;27.90;90.20;;;;;;5031309;28;20121;-53
2023/07/15 10:14:01;;;;;;;7.32;2.33;;;27.80;90.40;;;;;;5031335;28;20400;-53
2023/07/15 10:16:27;;;;;;;4.00;2.30;;;27.80;90.70;;;;;;5030630;28;20123;-53
2023/07/15 10:18:55;;;;;;;5.00;2.40;;;27.80;90.80;;;;;;5031483;28;20021;-52
2023/07/15 10:21:21;;;;;;;6.25;2.60;;;27.80;91.70;;;;;;5031007;28;20084;-58
2023/07/15 10:23:47;;;;;;;7.20;2.30;;;27.70;92.50;;;;;;5030787;28;20037;-53
2023/07/15 10:26:19;;;;;;;7.28;2.83;;;27.50;92.90;;;;;;5030859;28;20385;-51
2023/07/15 10:28:51;;;;;;;4.50;2.92;;;27.40;93.30;;;;;;5029633;28;20029;-52
2023/07/15 10:31:16;;;;;;;4.85;2.60;;;27.30;93.70;;;;;;5031128;28;20025;-51
2023/07/15 10:34:02;;;;;;;5.20;2.97;;;27.20;94.10;;;;;;5030662;28;20392;-52
2023/07/15 10:36:47;;;;;;;9.23;3.20;;;27.10;94.60;;;;;;5030799;28;20080;-53
2023/07/15 10:39:17;;;;;;;6.90;2.90;;;27.10;94.90;;;;;;5030052;28;20017;-54
2023/07/15 10:41:45;;;;;;;5.43;3.08;;;27.10;94.70;;;;;;5030956;28;20477;-55
2023/07/15 10:44:21;;;;;;;5.40;2.80;;;27.00;95.20;;;;;;5030748;28;20045;-51
2023/07/15 10:47:00;;;;;;;7.63;3.10;;;27.10;95.40;;;;;;5030571;28;20030;-54
2023/07/15 10:49:25;;;;;;;6.90;2.92;;;27.10;95.60;;;;;;5031061;28;20106;-52
2023/07/15 10:51:54;;;;;;;3.80;2.75;;;27.00;95.80;;;;;;5031138;28;20425;-55
2023/07/15 10:54:22;;;;;;;7.32;2.97;;;27.10;96.10;;;;;;5030853;28;20505;-54
2023/07/15 10:56:48;;;;;;;8.18;3.08;;;27.10;96.70;;;;;;5030115;28;20400;-51
2023/07/15 10:59:14;;;;;;;11.15;3.28;;;27.00;97.30;;;;;;5030875;28;20017;-56
2023/07/15 11:01:39;;;;;;;7.93;3.08;;;27.00;97.70;;;;;;5030890;28;20105;-56
2023/07/15 11:04:08;;;;;;;5.47;2.58;;;26.90;98.10;;;;;;5030938;28;20022;-55
2023/07/15 11:06:35;;;;;;;13.18;3.08;;;26.80;99.00;;;;;;5033925;28;20048;-50
2023/07/15 11:09:17;;;;;;;10.82;3.38;;;26.70;99.50;;;;;;5034621;28;20032;-54
2023/07/15 11:11:43;;;;;;;6.65;3.03;;;26.60;99.90;;;;;;5034360;28;20024;-58
2023/07/15 11:14:23;;;;;;;8.60;3.13;;;26.60;99.90;;;;;;5034246;28;20038;-52
2023/07/15 11:16:59;;;;;;;8.75;3.08;;;26.50;99.90;;;;;;5033818;28;20026;-55
2023/07/15 11:19:29;;;;;;;5.80;2.85;;;26.50;99.90;;;;;;5034337;28;20049;-55
2023/07/15 11:21:57;;;;;;;16.52;3.10;;;26.60;99.90;;;;;;5034326;28;20029;-53
2023/07/15 11:24:23;;;;;;;5.65;2.58;;;26.60;99.90;;;;;;5034338;28;20104;-53
2023/07/15 11:26:50;;;;;;;15.18;3.35;;;26.60;99.90;;;;;;5033767;28;20029;-48
2023/07/15 11:29:23;;;;;;;13.25;3.63;;;26.60;99.90;;;;;;5034198;28;20072;-54
2023/07/15 11:31:52;;;;;;;5.50;3.03;;;26.60;99.90;;;;;;5034283;28;20417;-52
2023/07/15 11:34:19;;;;;;;9.10;3.20;;;26.60;99.90;;;;;;5033677;28;20029;-57
2023/07/15 11:36:46;;;;;;;8.23;3.20;;;26.50;99.90;;;;;;5033187;28;20043;-54
2023/07/15 11:39:12;;;;;;;10.18;3.10;;;26.60;99.90;;;;;;5033151;28;20075;-56
2023/07/15 11:41:38;;;;;;;9.23;4.50;;;26.50;99.90;;;;;;5033688;28;20021;-54
2023/07/15 11:44:11;;;;;;;7.10;3.15;;;26.50;99.90;;;;;;5033312;28;20090;-52
2023/07/15 11:46:44;;;;;;;7.70;3.05;;;26.50;99.90;;;;;;5033139;28;20021;-48
2023/07/15 11:49:10;;;;;;;11.88;3.50;;;26.40;99.90;;;;;;5034019;28;20052;-55
2023/07/15 11:51:40;;;;;;;5.13;3.25;;;26.40;99.90;;;;;;5033629;28;20025;-51
2023/07/15 11:54:09;;;;;;;12.32;3.50;;;26.40;99.90;;;;;;5033651;28;20029;-51
2023/07/15 11:56:42;;;;;;;12.75;3.33;;;26.30;99.90;;;;;;5031666;28;20018;-53
2023/07/15 11:59:12;;;;;;;7.10;3.53;;;26.30;99.90;;;;;;5033644;28;20021;-53
2023/07/15 12:01:39;;;;;;;9.77;2.70;;;26.30;99.90;;;;;;5033972;28;20025;-51
2023/07/15 12:04:19;;;;;;;5.15;3.28;;;26.30;99.90;;;;;;5033514;28;20033;-55
2023/07/15 12:06:55;;;;;;;9.70;3.35;;;26.30;99.90;;;;;;5033058;28;20026;-51
2023/07/15 12:09:21;;;;;;;6.15;2.78;;;26.30;99.90;;;;;;5033323;28;20032;-52
2023/07/15 12:11:48;;;;;;;4.90;3.08;;;26.30;99.90;;;;;;5033314;28;20394;-51
2023/07/15 12:14:15;;;;;;;7.93;3.25;;;26.30;99.90;;;;;;5033371;28;20056;-53
2023/07/15 12:16:41;;;;;;;6.97;4.18;;;26.20;99.90;;;;;;5031998;28;20429;-51
2023/07/15 12:19:13;;;;;;;6.88;3.83;;;26.20;99.90;;;;;;5032294;28;20029;-54
2023/07/15 12:21:39;;;;;;;9.52;3.45;;;26.20;99.90;;;;;;5033296;28;20041;-52
2023/07/15 12:24:05;;;;;;;6.63;3.20;;;26.30;99.90;;;;;;5033042;28;20021;-54
2023/07/15 12:26:31;;;;;;;7.10;3.13;;;26.30;99.90;;;;;;5032524;28;20061;-53
2023/07/15 12:28:57;;;;;;;5.75;3.72;;;26.40;99.90;;;;;;5032978;28;20068;-52
2023/07/15 12:31:23;;;;;;;6.82;3.40;;;26.30;99.90;;;;;;5032789;28;20113;-53
2023/07/15 12:33:48;;;;;;;6.55;3.47;;;26.30;99.90;;;;;;5032567;28;20112;-53
2023/07/15 12:36:15;;;;;;;8.18;3.58;;;26.10;99.90;;;;;;5032740;28;20028;-54
2023/07/15 12:38:41;;;;;;;6.38;3.42;;;26.00;99.90;;;;;;5029919;28;20117;-52
2023/07/15 12:41:07;;;;;;;6.35;3.00;;;25.90;99.90;;;;;;5032985;28;20462;-53
2023/07/15 12:43:34;;;;;;;4.35;3.38;;;25.90;99.90;;;;;;5032981;28;20474;-49